createdAt,value
2024-04-22T00:01:48.544Z,91.80
2024-04-22T00:04:17.174Z,92.40
2024-04-22T00:06:48.960Z,92.00
2024-04-22T00:09:17.775Z,92.30
2024-04-22T00:11:46.397Z,93.10
2024-04-22T00:14:15.086Z,93.20
2024-04-22T00:16:43.784Z,92.00
2024-04-22T00:19:12.468Z,92.30
2024-04-22T00:21:41.155Z,92.90
2024-04-22T00:24:09.734Z,93.60
2024-04-22T00:26:38.341Z,93.40
2024-04-22T00:29:07.319Z,93.10
2024-04-22T00:31:35.961Z,93.60
2024-04-22T00:34:04.618Z,95.20
2024-04-22T00:36:33.384Z,95.30
2024-04-22T00:39:02.067Z,94.30
2024-04-22T00:41:33.331Z,95.10
2024-04-22T00:44:02.076Z,95.60
2024-04-22T00:46:30.836Z,95.90
2024-04-22T00:48:59.840Z,94.90
2024-04-22T00:51:28.692Z,95.50
2024-04-22T00:53:58.345Z,94.90
2024-04-22T00:56:30.947Z,93.30
2024-04-22T00:59:01.820Z,93.80
2024-04-22T01:01:30.995Z,93.80
2024-04-22T01:03:59.863Z,93.40
2024-04-22T01:06:28.549Z,94.30
2024-04-22T01:08:57.209Z,92.80
2024-04-22T01:11:25.953Z,93.90
2024-04-22T01:13:56.312Z,94.20
2024-04-22T01:16:24.955Z,94.20
2024-04-22T01:18:53.583Z,94.40
2024-04-22T01:21:31.345Z,93.90
2024-04-22T01:24:00.790Z,94.20
2024-04-22T01:26:29.561Z,92.80
2024-04-22T01:28:58.239Z,94.10
2024-04-22T01:31:26.909Z,93.30
2024-04-22T01:33:55.522Z,93.20
2024-04-22T01:36:24.151Z,94.40
2024-04-22T01:38:53.133Z,94.20
2024-04-22T01:41:21.750Z,94.30
2024-04-22T01:43:50.320Z,95.40
2024-04-22T01:46:18.958Z,94.60
2024-04-22T01:48:47.600Z,94.20
2024-04-22T01:51:16.163Z,94.10
2024-04-22T01:53:44.721Z,94.50
2024-04-22T01:56:13.416Z,94.70
2024-04-22T01:58:42.009Z,95.30
2024-04-22T02:01:10.881Z,95.50
2024-04-22T02:03:39.599Z,95.80
2024-04-22T02:06:08.176Z,96.60
2024-04-22T02:08:36.817Z,95.70
2024-04-22T02:11:05.685Z,96.30
2024-04-22T02:13:34.359Z,97.10
2024-04-22T02:16:03.023Z,97.10
2024-04-22T02:18:32.478Z,97.40
2024-04-22T02:21:01.052Z,98.10
2024-04-22T02:23:29.887Z,98.50
2024-04-22T02:25:58.615Z,98.80
2024-04-22T02:28:27.471Z,99.90
2024-04-22T02:30:56.133Z,99.90
2024-04-22T02:33:25.159Z,99.90
2024-04-22T02:35:53.839Z,99.90
2024-04-22T02:38:22.420Z,99.90
2024-04-22T02:40:51.046Z,99.90
2024-04-22T02:43:19.777Z,99.90
2024-04-22T02:45:48.391Z,99.90
2024-04-22T02:48:16.977Z,99.90
2024-04-22T02:50:45.652Z,99.90
2024-04-22T02:53:14.391Z,99.90
2024-04-22T02:55:43.083Z,99.90
2024-04-22T02:58:11.840Z,99.90
2024-04-22T03:00:40.573Z,99.90
2024-04-22T03:03:09.442Z,99.90
2024-04-22T03:05:39.182Z,99.90
2024-04-22T03:08:10.340Z,99.90
2024-04-22T03:10:42.351Z,99.90
2024-04-22T03:13:13.726Z,99.90
2024-04-22T03:15:42.326Z,99.90
2024-04-22T03:18:11.006Z,99.90
2024-04-22T03:20:39.813Z,99.90
2024-04-22T03:23:08.372Z,99.90
2024-04-22T03:25:37.046Z,99.90
2024-04-22T03:28:05.893Z,99.90
2024-04-22T03:30:34.564Z,99.90
2024-04-22T03:33:03.202Z,99.90
2024-04-22T03:35:35.261Z,99.90
2024-04-22T03:38:03.940Z,99.90
2024-04-22T03:40:32.566Z,99.90
2024-04-22T03:43:01.192Z,99.90
2024-04-22T03:45:29.757Z,99.90
2024-04-22T03:48:17.056Z,99.90
2024-04-22T03:50:45.676Z,99.90
2024-04-22T03:53:14.216Z,99.90
2024-04-22T03:55:42.896Z,99.90
2024-04-22T03:58:11.496Z,99.90
2024-04-22T04:00:40.485Z,99.90
2024-04-22T04:03:09.134Z,99.90
2024-04-22T04:05:37.830Z,99.90
2024-04-22T04:08:06.796Z,99.90
2024-04-22T04:10:35.409Z,99.90
2024-04-22T04:13:04.089Z,99.90
2024-04-22T04:15:32.694Z,99.90
2024-04-22T04:18:01.788Z,99.90
2024-04-22T04:20:30.399Z,99.90
2024-04-22T04:22:58.977Z,99.90
2024-04-22T04:25:27.585Z,99.90
2024-04-22T04:27:56.171Z,99.90
2024-04-22T04:30:25.319Z,99.90
2024-04-22T04:32:54.015Z,99.90
2024-04-22T04:35:22.686Z,99.90
2024-04-22T04:37:52.484Z,99.90
2024-04-22T04:40:21.336Z,99.90
2024-04-22T04:42:49.934Z,99.90
2024-04-22T04:45:18.520Z,99.90
2024-04-22T04:47:49.259Z,99.90
2024-04-22T04:50:17.929Z,99.90
2024-04-22T04:52:46.543Z,99.90
2024-04-22T04:55:15.264Z,99.90
2024-04-22T04:57:43.919Z,99.90
2024-04-22T05:00:13.291Z,99.90
2024-04-22T05:02:41.924Z,99.90
2024-04-22T05:05:10.556Z,99.90
2024-04-22T05:07:39.328Z,99.90
2024-04-22T05:10:08.343Z,99.90
2024-04-22T05:12:36.902Z,99.90
2024-04-22T05:15:05.908Z,99.90
2024-04-22T05:17:35.313Z,99.90
2024-04-22T05:20:04.447Z,99.90
2024-04-22T05:22:33.370Z,99.90
2024-04-22T05:25:01.958Z,99.90
2024-04-22T05:27:33.107Z,99.90
2024-04-22T05:30:02.723Z,99.90
2024-04-22T05:32:31.780Z,99.90
2024-04-22T05:35:18.734Z,99.90
2024-04-22T05:37:47.377Z,99.90
2024-04-22T05:40:15.976Z,99.90
2024-04-22T05:42:44.664Z,99.90
2024-04-22T05:45:13.240Z,99.90
2024-04-22T05:47:41.873Z,99.90
2024-04-22T05:50:10.515Z,99.90
2024-04-22T05:52:39.141Z,99.90
2024-04-22T05:55:07.848Z,99.90
2024-04-22T05:57:36.441Z,99.90
2024-04-22T06:00:05.201Z,99.90
2024-04-22T06:02:33.782Z,99.90
2024-04-22T06:05:02.532Z,99.90
2024-04-22T06:07:31.230Z,99.90
2024-04-22T06:09:59.801Z,99.90
2024-04-22T06:12:28.508Z,99.90
2024-04-22T06:14:57.077Z,99.90
2024-04-22T06:17:25.947Z,99.90
2024-04-22T06:19:54.590Z,99.90
2024-04-22T06:22:23.284Z,99.90
2024-04-22T06:24:53.812Z,99.90
2024-04-22T06:27:22.403Z,99.90
2024-04-22T06:29:51.439Z,99.90
2024-04-22T06:32:20.139Z,99.90
2024-04-22T06:34:48.987Z,99.90
2024-04-22T06:37:17.696Z,99.90
2024-04-22T06:39:46.782Z,99.90
2024-04-22T06:42:15.463Z,99.90
2024-04-22T06:44:44.124Z,99.90
2024-04-22T06:47:12.844Z,99.90
2024-04-22T06:49:41.657Z,99.90
2024-04-22T06:52:10.349Z,99.90
2024-04-22T06:54:39.011Z,99.90
2024-04-22T06:57:07.579Z,99.90
2024-04-22T06:59:36.177Z,99.90
2024-04-22T07:02:08.921Z,99.90
2024-04-22T07:04:39.897Z,99.90
2024-04-22T07:07:08.571Z,99.90
2024-04-22T07:09:37.658Z,99.90
2024-04-22T07:12:06.686Z,99.90
2024-04-22T07:14:35.297Z,99.90
2024-04-22T07:17:03.936Z,99.90
2024-04-22T07:19:32.666Z,99.90
2024-04-22T07:22:03.009Z,99.90
2024-04-22T07:24:31.941Z,99.90
2024-04-22T07:27:03.035Z,99.90
2024-04-22T07:29:33.168Z,99.90
2024-04-22T07:32:02.080Z,99.90
2024-04-22T07:34:30.980Z,99.90
2024-04-22T07:37:25.034Z,99.90
2024-04-22T07:39:55.730Z,99.90
2024-04-22T07:42:24.621Z,99.90
2024-04-22T07:44:53.226Z,99.90
2024-04-22T07:47:21.791Z,99.90
2024-04-22T07:49:50.917Z,99.90
2024-04-22T07:52:19.818Z,99.90
2024-04-22T07:54:48.679Z,99.90
2024-04-22T07:57:18.034Z,99.90
2024-04-22T07:59:46.880Z,99.90
2024-04-22T08:02:15.730Z,99.90
2024-04-22T08:04:45.028Z,99.90
2024-04-22T08:07:15.851Z,99.90
2024-04-22T08:09:44.593Z,99.90
2024-04-22T08:12:15.055Z,99.90
2024-04-22T08:14:43.704Z,99.90
2024-04-22T08:17:12.467Z,99.90
2024-04-22T08:19:43.135Z,99.90
2024-04-22T08:22:11.854Z,99.90
2024-04-22T08:24:40.536Z,99.90
2024-04-22T08:27:10.082Z,99.90
2024-04-22T08:29:38.678Z,99.90
2024-04-22T08:32:08.349Z,99.90
2024-04-22T08:34:36.905Z,99.90
2024-04-22T08:37:05.618Z,99.90
2024-04-22T08:39:34.198Z,99.90
2024-04-22T08:42:10.638Z,99.90
2024-04-22T08:44:39.210Z,99.90
2024-04-22T08:47:08.446Z,99.90
2024-04-22T08:49:37.175Z,99.90
2024-04-22T08:52:06.100Z,99.90
2024-04-22T08:54:36.999Z,99.90
2024-04-22T08:57:06.956Z,99.90
2024-04-22T08:59:40.347Z,99.90
2024-04-22T09:02:10.904Z,99.90
2024-04-22T09:04:39.885Z,99.90
2024-04-22T09:07:20.441Z,99.90
2024-04-22T09:10:10.269Z,99.90
2024-04-22T09:12:38.633Z,99.90
2024-04-22T09:15:08.085Z,99.90
2024-04-22T09:17:38.738Z,99.90
2024-04-22T09:20:08.454Z,99.90
2024-04-22T09:22:37.164Z,99.90
2024-04-22T09:25:06.167Z,99.90
2024-04-22T09:27:35.836Z,99.90
2024-04-22T09:30:09.039Z,99.90
2024-04-22T09:32:38.591Z,99.90
2024-04-22T09:35:19.778Z,99.90
2024-04-22T09:37:52.586Z,99.90
2024-04-22T09:40:21.689Z,99.90
2024-04-22T09:42:50.997Z,99.90
2024-04-22T09:45:19.663Z,99.90
2024-04-22T09:47:48.979Z,99.90
2024-04-22T09:50:19.751Z,99.90
2024-04-22T09:52:50.952Z,99.90
2024-04-22T09:55:19.923Z,99.90
2024-04-22T09:57:50.428Z,99.90
2024-04-22T10:00:19.782Z,99.90
2024-04-22T10:02:48.677Z,99.90
2024-04-22T10:05:18.275Z,99.90
2024-04-22T10:07:46.934Z,99.90
2024-04-22T10:10:16.327Z,99.90
2024-04-22T10:12:44.981Z,99.90
2024-04-22T10:15:18.505Z,99.90
2024-04-22T10:17:47.418Z,99.90
2024-04-22T10:20:17.118Z,99.90
2024-04-22T10:22:46.435Z,99.90
2024-04-22T10:25:20.615Z,99.90
2024-04-22T10:27:49.248Z,99.90
2024-04-22T10:30:17.874Z,99.90
2024-04-22T10:32:47.755Z,99.90
2024-04-22T10:35:16.922Z,99.90
2024-04-22T10:37:45.615Z,99.90
2024-04-22T10:40:14.323Z,99.90
2024-04-22T10:42:43.392Z,99.90
2024-04-22T10:45:12.604Z,99.90
2024-04-22T10:47:41.360Z,99.90
2024-04-22T10:50:17.869Z,99.90
2024-04-22T10:52:47.181Z,99.90
2024-04-22T10:55:15.865Z,99.90
2024-04-22T10:57:44.727Z,99.90
2024-04-22T11:00:14.670Z,99.90
2024-04-22T11:02:43.578Z,99.90
2024-04-22T11:05:12.994Z,99.90
2024-04-22T11:07:42.014Z,99.90
2024-04-22T11:10:10.820Z,99.90
2024-04-22T11:12:39.825Z,99.90
2024-04-22T11:15:09.316Z,99.90
2024-04-22T11:17:37.897Z,99.90
2024-04-22T11:20:11.142Z,99.90
2024-04-22T11:22:40.054Z,99.90
2024-04-22T11:25:09.611Z,99.90
2024-04-22T11:27:39.660Z,99.90
2024-04-22T11:30:09.705Z,99.90
2024-04-22T11:32:39.391Z,99.90
2024-04-22T11:35:10.121Z,99.90
2024-04-22T11:37:38.791Z,99.90
2024-04-22T11:40:10.440Z,99.90
2024-04-22T11:42:39.283Z,99.90
2024-04-22T11:45:08.341Z,99.90
2024-04-22T11:47:37.142Z,99.90
2024-04-22T11:50:07.328Z,99.90
2024-04-22T11:52:36.016Z,99.90
2024-04-22T11:55:04.722Z,99.90
2024-04-22T11:57:33.384Z,99.90
2024-04-22T12:00:02.085Z,99.90
2024-04-22T12:02:30.744Z,99.90
2024-04-22T12:04:59.728Z,99.90
2024-04-22T12:07:28.493Z,99.90
2024-04-22T12:09:57.064Z,99.90
2024-04-22T12:12:25.619Z,99.90
2024-04-22T12:14:54.210Z,99.90
2024-04-22T12:17:26.117Z,99.90
2024-04-22T12:19:55.332Z,99.90
2024-04-22T12:22:24.724Z,99.90
2024-04-22T12:24:53.389Z,99.90
2024-04-22T12:27:22.594Z,99.90
2024-04-22T12:29:52.569Z,99.90
2024-04-22T12:32:21.712Z,99.90
2024-04-22T12:34:50.330Z,99.90
2024-04-22T12:37:19.334Z,99.90
2024-04-22T12:39:48.068Z,99.90
2024-04-22T12:42:16.648Z,99.90
2024-04-22T12:44:45.167Z,99.90
2024-04-22T12:47:32.435Z,99.90
2024-04-22T12:50:19.172Z,99.90
2024-04-22T12:52:47.861Z,99.90
2024-04-22T12:55:16.518Z,99.90
2024-04-22T12:57:45.127Z,99.90
2024-04-22T13:00:15.302Z,99.90
2024-04-22T13:02:44.942Z,99.90
2024-04-22T13:05:13.637Z,99.90
2024-04-22T13:07:42.495Z,99.90
2024-04-22T13:10:11.295Z,99.90
2024-04-22T13:12:39.858Z,99.90
2024-04-22T13:15:08.816Z,99.90
2024-04-22T13:17:38.004Z,99.90
2024-04-22T13:20:07.691Z,99.90
2024-04-22T13:22:36.992Z,99.90
2024-04-22T13:25:07.336Z,99.90
2024-04-22T13:27:36.580Z,99.90
2024-04-22T13:30:10.690Z,99.90
2024-04-22T13:32:40.404Z,99.90
2024-04-22T13:35:09.571Z,99.90
2024-04-22T13:37:40.368Z,99.90
2024-04-22T13:40:10.196Z,99.90
2024-04-22T13:42:44.461Z,99.90
2024-04-22T13:45:15.298Z,99.90
2024-04-22T13:47:43.995Z,99.90
2024-04-22T13:50:13.084Z,99.90
2024-04-22T13:52:44.074Z,99.90
2024-04-22T13:55:13.666Z,99.90
2024-04-22T13:57:42.634Z,99.90
2024-04-22T14:00:14.175Z,99.90
2024-04-22T14:02:44.001Z,99.90
2024-04-22T14:05:12.628Z,99.90
2024-04-22T14:07:41.288Z,1.00
2024-04-22T14:10:10.064Z,1.00
2024-04-22T14:12:38.676Z,1.00
2024-04-22T14:15:08.340Z,1.00
2024-04-22T14:17:40.965Z,1.00
2024-04-22T14:20:10.438Z,99.90
2024-04-22T14:22:39.120Z,99.90
2024-04-22T14:25:08.242Z,99.90
2024-04-22T14:27:36.833Z,99.90
2024-04-22T14:30:05.792Z,99.90
2024-04-22T14:32:34.539Z,99.90
2024-04-22T14:35:03.476Z,99.90
2024-04-22T14:37:32.632Z,99.90
2024-04-22T14:40:01.327Z,99.90
2024-04-22T14:42:29.961Z,99.90
2024-04-22T14:44:58.601Z,99.90
2024-04-22T14:47:27.185Z,99.90
2024-04-22T14:49:55.856Z,99.90
2024-04-22T14:52:24.627Z,99.90
2024-04-22T14:54:53.254Z,99.90
2024-04-22T14:57:21.874Z,99.90
2024-04-22T14:59:50.492Z,99.90
2024-04-22T15:02:19.099Z,99.90
2024-04-22T15:04:47.717Z,99.90
2024-04-22T15:07:17.250Z,99.90
2024-04-22T15:09:49.467Z,99.90
2024-04-22T15:12:18.311Z,99.90
2024-04-22T15:14:46.848Z,99.90
2024-04-22T15:17:15.963Z,99.90
2024-04-22T15:19:44.772Z,99.90
2024-04-22T15:22:15.536Z,99.90
2024-04-22T15:24:44.186Z,99.90
2024-04-22T15:27:12.867Z,99.90
2024-04-22T15:29:41.514Z,99.90
2024-04-22T15:32:10.167Z,99.90
2024-04-22T15:34:40.400Z,99.90
2024-04-22T15:37:08.964Z,99.90
2024-04-22T15:39:37.596Z,99.90
2024-04-22T15:42:06.445Z,99.90
2024-04-22T15:44:35.039Z,99.90
2024-04-22T15:47:03.744Z,99.90
2024-04-22T15:49:32.822Z,99.90
2024-04-22T15:52:03.614Z,99.90
2024-04-22T15:54:32.760Z,99.90
2024-04-22T15:57:01.431Z,99.90
2024-04-22T15:59:30.114Z,99.90
2024-04-22T16:01:58.823Z,99.90
2024-04-22T16:04:27.803Z,99.90
2024-04-22T16:06:56.476Z,99.90
2024-04-22T16:09:26.399Z,99.90
2024-04-22T16:11:58.176Z,99.90
2024-04-22T16:14:26.902Z,99.90
2024-04-22T16:16:58.313Z,99.90
2024-04-22T16:19:26.964Z,99.90
2024-04-22T16:21:55.575Z,99.90
2024-04-22T16:24:24.189Z,99.90
2024-04-22T16:26:56.089Z,99.90
2024-04-22T16:29:24.687Z,99.90
2024-04-22T16:31:53.327Z,99.90
2024-04-22T16:34:22.070Z,99.90
2024-04-22T16:36:50.647Z,99.90
2024-04-22T16:39:19.240Z,99.90
2024-04-22T16:41:47.800Z,99.90
2024-04-22T16:44:16.375Z,99.90
2024-04-22T16:46:45.010Z,99.90
2024-04-22T16:49:13.624Z,99.90
2024-04-22T16:51:45.940Z,99.90
2024-04-22T16:54:14.627Z,99.90
2024-04-22T16:56:43.219Z,99.90
2024-04-22T16:59:11.834Z,99.90
2024-04-22T17:01:40.853Z,99.90
2024-04-22T17:04:09.682Z,99.90
2024-04-22T17:06:38.254Z,99.90
2024-04-22T17:09:07.103Z,99.90
2024-04-22T17:11:35.838Z,99.90
2024-04-22T17:14:04.823Z,99.90
2024-04-22T17:16:34.415Z,99.90
2024-04-22T17:19:03.967Z,99.90
2024-04-22T17:21:32.720Z,99.90
2024-04-22T17:24:01.713Z,99.90
2024-04-22T17:26:32.328Z,99.90
2024-04-22T17:29:01.073Z,99.90
2024-04-22T17:31:29.764Z,99.90
2024-04-22T17:33:58.373Z,99.90
2024-04-22T17:36:26.999Z,99.90
2024-04-22T17:38:55.705Z,99.90
2024-04-22T17:41:24.345Z,99.90
2024-04-22T17:43:53.021Z,99.90
2024-04-22T17:46:21.760Z,99.90
2024-04-22T17:48:50.907Z,99.90
2024-04-22T17:51:19.764Z,99.90
2024-04-22T17:53:49.212Z,99.90
2024-04-22T17:56:17.854Z,99.90
2024-04-22T17:58:47.883Z,99.90
2024-04-22T18:01:16.709Z,99.90
2024-04-22T18:03:47.124Z,99.90
2024-04-22T18:06:15.792Z,99.90
2024-04-22T18:08:46.697Z,99.90
2024-04-22T18:11:15.370Z,99.90
2024-04-22T18:13:44.175Z,99.90
2024-04-22T18:16:12.796Z,99.90
2024-04-22T18:18:41.388Z,99.90
2024-04-22T18:21:11.000Z,99.90
2024-04-22T18:23:39.572Z,99.90
2024-04-22T18:26:14.228Z,99.90
2024-04-22T18:28:44.956Z,99.90
2024-04-22T18:31:13.628Z,99.90
2024-04-22T18:33:42.319Z,99.90
2024-04-22T18:36:11.089Z,99.90
2024-04-22T18:38:39.839Z,99.90
2024-04-22T18:41:10.673Z,99.90
2024-04-22T18:43:39.704Z,99.90
2024-04-22T18:46:08.346Z,99.90
2024-04-22T18:48:37.085Z,99.90
2024-04-22T18:51:06.102Z,99.90
2024-04-22T18:53:35.684Z,99.90
2024-04-22T18:56:04.504Z,99.90
2024-04-22T18:58:33.452Z,99.90
2024-04-22T19:01:02.233Z,99.90
2024-04-22T19:03:30.935Z,99.90
2024-04-22T19:05:59.588Z,99.90
2024-04-22T19:08:28.203Z,99.90
2024-04-22T19:10:57.038Z,99.90
2024-04-22T19:13:25.746Z,99.90
2024-04-22T19:15:54.453Z,99.90
2024-04-22T19:18:23.082Z,99.90
2024-04-22T19:20:51.700Z,99.90
2024-04-22T19:23:20.311Z,99.90
2024-04-22T19:25:49.428Z,99.90
2024-04-22T19:28:18.032Z,99.90
2024-04-22T19:30:46.648Z,99.90
2024-04-22T19:33:15.221Z,99.90
2024-04-22T19:35:49.900Z,99.90
2024-04-22T19:38:19.079Z,99.90
2024-04-22T19:40:48.103Z,99.90
2024-04-22T19:43:16.825Z,98.90
2024-04-22T19:45:45.402Z,98.30
2024-04-22T19:48:14.145Z,98.80
2024-04-22T19:50:45.071Z,98.40
2024-04-22T19:53:16.636Z,99.20
2024-04-22T19:55:45.434Z,99.90
2024-04-22T19:58:14.247Z,98.40
2024-04-22T20:00:42.866Z,98.40
2024-04-22T20:03:11.498Z,96.10
2024-04-22T20:05:40.150Z,96.40
2024-04-22T20:08:10.631Z,95.20
2024-04-22T20:10:45.411Z,94.90
2024-04-22T20:13:14.067Z,93.20
2024-04-22T20:15:51.981Z,93.50
2024-04-22T20:18:42.150Z,92.20
2024-04-22T20:21:11.001Z,88.90
2024-04-22T20:23:39.721Z,91.40
2024-04-22T20:26:08.434Z,90.20
2024-04-22T20:28:37.085Z,91.80
2024-04-22T20:31:05.940Z,90.10
2024-04-22T20:33:34.827Z,85.50
2024-04-22T20:36:03.540Z,85.50
2024-04-22T20:38:32.335Z,91.00
2024-04-22T20:41:02.066Z,92.30
2024-04-22T20:43:35.310Z,85.80
2024-04-22T20:46:05.660Z,86.00
2024-04-22T20:48:35.613Z,85.00
2024-04-22T20:51:06.361Z,91.50
2024-04-22T20:53:35.498Z,81.90
2024-04-22T20:56:05.563Z,78.50
2024-04-22T20:58:36.402Z,82.10
2024-04-22T21:01:09.712Z,75.90
2024-04-22T21:03:38.417Z,65.60
2024-04-22T21:06:07.271Z,52.00
2024-04-22T21:08:36.015Z,46.30
2024-04-22T21:11:04.883Z,38.90
2024-04-22T21:13:58.482Z,39.20
2024-04-22T21:16:26.918Z,24.10
2024-04-22T21:19:06.724Z,23.90
2024-04-22T21:21:39.978Z,19.10
2024-04-22T21:24:08.994Z,19.40
2024-04-22T21:26:37.587Z,14.10
2024-04-22T21:29:06.207Z,12.10
2024-04-22T21:31:34.808Z,18.40
2024-04-22T21:34:08.596Z,21.60
2024-04-22T21:36:38.446Z,23.40
2024-04-22T21:39:07.117Z,25.90
2024-04-22T21:41:35.682Z,30.40
2024-04-22T21:44:04.288Z,43.20
2024-04-22T21:46:32.936Z,46.00
2024-04-22T21:49:01.541Z,47.80
2024-04-22T21:51:29.799Z,53.20
2024-04-22T21:53:58.050Z,53.40
2024-04-22T21:56:26.377Z,55.10
2024-04-22T21:59:13.035Z,58.60
2024-04-22T22:01:59.886Z,60.30
2024-04-22T22:04:46.644Z,60.80
2024-04-22T22:07:23.484Z,65.00
2024-04-22T22:09:51.758Z,62.20
2024-04-22T22:12:22.430Z,66.40
2024-04-22T22:14:52.476Z,67.10
2024-04-22T22:17:21.244Z,67.50
2024-04-22T22:19:51.428Z,65.00
2024-04-22T22:22:19.695Z,65.20
2024-04-22T22:24:47.917Z,63.80
2024-04-22T22:27:16.455Z,66.60
2024-04-22T22:29:44.734Z,67.80
2024-04-22T22:32:13.134Z,67.00
2024-04-22T22:34:41.495Z,70.40
2024-04-22T22:37:09.718Z,62.70
2024-04-22T22:39:37.885Z,64.80
2024-04-22T22:42:06.185Z,67.80
2024-04-22T22:44:34.390Z,65.60
2024-04-22T22:47:06.451Z,65.40
2024-04-22T22:49:34.934Z,64.20
2024-04-22T22:52:03.179Z,63.20
2024-04-22T22:54:31.486Z,64.70
2024-04-22T22:57:00.687Z,63.70
2024-04-22T22:59:29.414Z,64.20
2024-04-22T23:01:58.459Z,63.80
2024-04-22T23:04:26.704Z,66.90
2024-04-22T23:07:02.721Z,66.10
2024-04-22T23:09:30.876Z,69.90
2024-04-22T23:11:59.067Z,72.00
2024-04-22T23:14:27.327Z,72.80
2024-04-22T23:16:55.672Z,76.90
2024-04-22T23:19:23.969Z,78.50
2024-04-22T23:21:52.269Z,78.40
2024-04-22T23:24:20.534Z,77.50
2024-04-22T23:26:52.578Z,76.80
2024-04-22T23:29:20.881Z,76.40
2024-04-22T23:31:49.262Z,75.50
2024-04-22T23:34:18.769Z,78.40
2024-04-22T23:36:48.411Z,75.20
2024-04-22T23:39:16.729Z,78.20
2024-04-22T23:41:45.022Z,74.80
2024-04-22T23:44:13.488Z,75.90
2024-04-22T23:46:53.817Z,75.50
2024-04-22T23:49:22.396Z,73.30
2024-04-22T23:51:50.822Z,74.60
2024-04-22T23:54:19.173Z,72.40
2024-04-22T23:56:47.569Z,77.50
2024-04-22T23:59:16.116Z,71.90
